Puerto Belgrano, Argentina
Current Conditions -  °F | °C
As of 5:00 PM on Wednesday 26 Nov 2014 (Local Time) from SAZM Reporting Station
Broken Clouds Broken Clouds  
Wind Chill: 79°   Ceiling: 20000
Heat Index: 79°   Visibility: 6mi
Dew Point: 52°   Wind: 16mph
Humidity: 39%   Direction: 320°NW
Pressure: 29.83"   Gusts: NA
Location:  38.92°S, 62.08°W
Report Text: SAZM 262000Z 32014KT 9999 FEW030 FEW032TCUBKN200 26/11 Q1010
Loading
Personal Weather Stations






























Interactive Weather Map New forecast layout! Learn more

10-Day Weather Forecast

Advertisements
Track Severe Weather on mobile